createdAt,value
2018-06-19T00:04:56.086Z,0.00
2018-06-19T00:05:35.025Z,0.00
2018-06-19T00:07:29.787Z,0.00
2018-06-19T00:08:29.697Z,0.00
2018-06-19T00:09:29.623Z,0.00
2018-06-19T00:10:29.543Z,0.00
2018-06-19T00:11:29.480Z,0.00
2018-06-19T00:12:29.395Z,0.00
2018-06-19T00:13:29.329Z,0.00
2018-06-19T00:14:29.245Z,0.00
2018-06-19T00:15:29.181Z,0.00
2018-06-19T00:16:29.098Z,0.00
2018-06-19T00:17:29.028Z,0.00
2018-06-19T00:18:28.957Z,0.00
2018-06-19T00:19:28.884Z,0.00
2018-06-19T00:20:28.799Z,0.00
2018-06-19T00:21:28.735Z,0.00
2018-06-19T00:22:28.651Z,0.00
2018-06-19T00:23:28.582Z,0.00
2018-06-19T00:24:28.502Z,0.00
2018-06-19T00:25:28.439Z,0.00
2018-06-19T00:26:28.348Z,0.00
2018-06-19T00:27:28.282Z,0.00
2018-06-19T00:28:28.199Z,0.00
2018-06-19T00:29:28.132Z,0.00
2018-06-19T00:30:28.050Z,0.00
2018-06-19T00:31:27.984Z,0.00
2018-06-19T00:32:27.902Z,0.00
2018-06-19T00:33:27.840Z,0.00
2018-06-19T00:34:27.756Z,0.00
2018-06-19T00:35:27.685Z,0.00
2018-06-19T00:36:27.600Z,0.00
2018-06-19T00:37:27.534Z,0.00
2018-06-19T00:38:27.449Z,0.00
2018-06-19T00:39:27.383Z,0.00
2018-06-19T00:40:27.301Z,0.00
2018-06-19T00:41:27.230Z,0.00
2018-06-19T00:42:27.149Z,0.00
2018-06-19T00:43:27.090Z,0.00
2018-06-19T00:44:27.001Z,0.00
2018-06-19T00:45:26.932Z,0.00
2018-06-19T00:46:26.859Z,0.00
2018-06-19T00:47:26.783Z,0.00
2018-06-19T00:48:26.699Z,0.00
2018-06-19T00:49:26.634Z,0.00
2018-06-19T00:50:26.560Z,0.00
2018-06-19T00:51:26.484Z,0.00
2018-06-19T00:52:26.402Z,0.00
2018-06-19T00:53:26.334Z,0.00
2018-06-19T00:54:26.247Z,0.00
2018-06-19T00:55:26.190Z,0.00
2018-06-19T00:56:26.142Z,0.00
2018-06-19T00:57:26.035Z,0.00
2018-06-19T00:58:25.950Z,0.00
2018-06-19T00:59:25.893Z,0.00
2018-06-19T01:00:25.802Z,0.00
2018-06-19T01:01:25.735Z,0.00
2018-06-19T01:02:25.648Z,0.00
2018-06-19T01:03:25.579Z,0.00
2018-06-19T01:04:25.501Z,0.00
2018-06-19T01:05:25.433Z,0.00
2018-06-19T01:06:25.349Z,0.00
2018-06-19T01:07:25.277Z,0.00
2018-06-19T01:08:25.200Z,0.00
2018-06-19T01:09:25.132Z,0.00
2018-06-19T01:10:25.050Z,0.00
2018-06-19T01:11:24.984Z,0.00
2018-06-19T01:12:24.899Z,0.00
2018-06-19T01:13:24.834Z,0.00
2018-06-19T01:14:24.750Z,0.00
2018-06-19T01:15:24.685Z,0.00
2018-06-19T01:16:24.599Z,0.00
2018-06-19T01:17:24.532Z,0.00
2018-06-19T01:18:24.450Z,0.00
2018-06-19T01:19:24.381Z,0.00
2018-06-19T01:20:24.298Z,0.00
2018-06-19T01:21:24.229Z,0.00
2018-06-19T01:22:24.146Z,0.00
2018-06-19T01:23:24.083Z,0.00
2018-06-19T01:24:23.999Z,0.00
2018-06-19T01:25:23.939Z,0.00
2018-06-19T01:26:23.892Z,0.00
2018-06-19T01:27:23.781Z,0.00
2018-06-19T01:28:23.697Z,0.00
2018-06-19T01:29:23.627Z,0.00
2018-06-19T01:30:23.545Z,0.00
2018-06-19T01:31:23.478Z,0.00
2018-06-19T01:32:23.395Z,0.00
2018-06-19T01:33:23.328Z,0.00
2018-06-19T01:34:23.246Z,0.00
2018-06-19T01:35:23.177Z,0.00
2018-06-19T01:36:23.094Z,0.00
2018-06-19T01:37:23.029Z,0.00
2018-06-19T01:38:22.945Z,0.00
2018-06-19T01:39:22.876Z,0.00
2018-06-19T01:40:22.793Z,0.00
2018-06-19T01:41:22.727Z,0.00
2018-06-19T01:42:22.643Z,0.00
2018-06-19T01:43:22.577Z,0.00
2018-06-19T01:44:22.494Z,0.00
2018-06-19T01:45:22.434Z,0.00
2018-06-19T01:46:22.346Z,0.00
2018-06-19T01:47:22.273Z,0.00
2018-06-19T01:48:22.193Z,0.00
2018-06-19T01:49:22.120Z,0.00
2018-06-19T01:50:22.043Z,0.00
2018-06-19T01:51:21.972Z,0.00
2018-06-19T01:52:21.890Z,0.00
2018-06-19T01:53:21.820Z,0.00
2018-06-19T01:54:21.742Z,0.00
2018-06-19T01:55:21.671Z,0.00
2018-06-19T01:56:21.588Z,0.00
2018-06-19T01:57:21.518Z,0.00
2018-06-19T01:58:21.438Z,0.00
2018-06-19T01:59:21.371Z,0.00
2018-06-19T02:00:21.285Z,0.00
2018-06-19T02:01:21.223Z,0.00
2018-06-19T02:02:21.136Z,0.00
2018-06-19T02:03:21.069Z,0.00
2018-06-19T02:04:20.985Z,0.00
2018-06-19T02:05:20.918Z,0.00
2018-06-19T02:06:20.838Z,0.00
2018-06-19T02:07:20.769Z,0.00
2018-06-19T02:08:20.684Z,0.00
2018-06-19T02:09:20.617Z,0.00
2018-06-19T02:10:20.532Z,0.00
2018-06-19T02:11:20.466Z,0.00
2018-06-19T02:12:20.391Z,0.00
2018-06-19T02:13:20.310Z,0.00
2018-06-19T02:14:20.231Z,0.00
2018-06-19T02:15:20.163Z,0.00
2018-06-19T02:16:20.080Z,0.00
2018-06-19T02:17:20.013Z,0.00
2018-06-19T02:18:19.931Z,0.00
2018-06-19T02:19:19.861Z,0.00
2018-06-19T02:20:19.778Z,0.00
2018-06-19T02:21:19.709Z,0.00
2018-06-19T02:22:19.627Z,0.00
2018-06-19T02:23:19.560Z,0.00
2018-06-19T02:24:19.480Z,0.00
2018-06-19T02:25:19.417Z,0.00
2018-06-19T02:26:19.324Z,0.00
2018-06-19T02:27:19.258Z,0.00
2018-06-19T02:28:19.174Z,0.00
2018-06-19T02:29:19.105Z,0.00
2018-06-19T02:30:19.027Z,0.00
2018-06-19T02:31:18.952Z,0.00
2018-06-19T02:32:18.887Z,0.00
2018-06-19T02:33:18.806Z,0.00
2018-06-19T02:34:18.723Z,0.00
2018-06-19T02:35:18.658Z,0.00
2018-06-19T02:36:18.571Z,0.00
2018-06-19T02:37:18.503Z,0.00
2018-06-19T02:38:18.421Z,0.00
2018-06-19T02:39:18.357Z,0.00
2018-06-19T02:40:18.273Z,0.00
2018-06-19T02:41:18.209Z,0.00
2018-06-19T02:42:18.121Z,0.00
2018-06-19T02:43:18.052Z,0.00
2018-06-19T02:44:17.969Z,0.00
2018-06-19T02:45:17.897Z,0.00
2018-06-19T02:46:17.814Z,0.00
2018-06-19T02:47:17.751Z,0.00
2018-06-19T02:48:17.666Z,4.00
2018-06-19T02:49:17.596Z,0.00
2018-06-19T02:50:17.518Z,0.00
2018-06-19T02:51:17.450Z,4.00
2018-06-19T02:52:17.365Z,0.00
2018-06-19T02:53:17.298Z,0.00
2018-06-19T02:54:17.217Z,4.00
2018-06-19T02:55:17.149Z,4.00
2018-06-19T02:56:17.061Z,4.00
2018-06-19T02:57:16.998Z,4.00
2018-06-19T02:58:16.914Z,4.00
2018-06-19T02:59:16.897Z,4.00
2018-06-19T03:00:16.823Z,4.00
2018-06-19T03:01:16.697Z,4.00
2018-06-19T03:02:16.609Z,4.00
2018-06-19T03:03:16.542Z,4.00
2018-06-19T03:04:16.454Z,4.00
2018-06-19T03:05:16.390Z,8.00
2018-06-19T03:06:16.303Z,8.00
2018-06-19T03:07:16.242Z,8.00
2018-06-19T03:08:16.155Z,8.00
2018-06-19T03:09:16.111Z,12.00
2018-06-19T03:10:16.006Z,8.00
2018-06-19T03:11:15.935Z,12.00
2018-06-19T03:12:15.857Z,12.00
2018-06-19T03:13:15.789Z,12.00
2018-06-19T03:14:15.703Z,12.00
2018-06-19T03:15:15.647Z,16.00
2018-06-19T03:16:15.557Z,16.00
2018-06-19T03:17:15.499Z,16.00
2018-06-19T03:18:15.403Z,16.00
2018-06-19T03:19:15.333Z,20.00
2018-06-19T03:20:15.254Z,20.00
2018-06-19T03:21:15.186Z,20.00
2018-06-19T03:22:15.106Z,20.00
2018-06-19T03:23:15.038Z,24.00
2018-06-19T03:24:14.952Z,24.00
2018-06-19T03:25:14.899Z,24.00
2018-06-19T03:26:14.803Z,28.00
2018-06-19T03:27:14.740Z,24.00
2018-06-19T03:28:14.652Z,28.00
2018-06-19T03:29:14.582Z,28.00
2018-06-19T03:30:14.525Z,32.00
2018-06-19T03:31:14.429Z,28.00
2018-06-19T03:32:14.356Z,32.00
2018-06-19T03:33:14.287Z,32.00
2018-06-19T03:34:14.199Z,32.00
2018-06-19T03:35:14.133Z,40.00
2018-06-19T03:36:14.053Z,40.00
2018-06-19T03:37:13.980Z,40.00
2018-06-19T03:38:13.899Z,44.00
2018-06-19T03:39:13.831Z,44.00
2018-06-19T03:40:13.754Z,48.00
2018-06-19T03:41:13.680Z,48.00
2018-06-19T03:42:13.599Z,48.00
2018-06-19T03:43:13.531Z,52.00
2018-06-19T03:44:13.448Z,56.00
2018-06-19T03:45:13.379Z,52.00
2018-06-19T03:46:13.294Z,56.00
2018-06-19T03:47:13.229Z,56.00
2018-06-19T03:48:13.146Z,56.00
2018-06-19T03:49:13.079Z,60.00
2018-06-19T03:50:13.012Z,64.00
2018-06-19T03:51:12.928Z,64.00
2018-06-19T03:52:12.847Z,64.00
2018-06-19T03:53:12.778Z,68.00
2018-06-19T03:54:12.699Z,68.00
2018-06-19T03:55:12.627Z,68.00
2018-06-19T03:56:12.545Z,72.00
2018-06-19T03:57:12.477Z,72.00
2018-06-19T03:58:12.396Z,76.00
2018-06-19T03:59:12.328Z,80.00
2018-06-19T04:00:12.246Z,84.00
2018-06-19T04:01:12.182Z,84.00
2018-06-19T04:02:12.096Z,88.00
2018-06-19T04:03:12.029Z,92.00
2018-06-19T04:04:11.946Z,96.00
2018-06-19T04:05:11.874Z,100.00
2018-06-19T04:06:11.797Z,100.00
2018-06-19T04:07:11.728Z,100.00
2018-06-19T04:08:11.644Z,104.00
2018-06-19T04:09:11.576Z,108.00
2018-06-19T04:10:11.499Z,116.00
2018-06-19T04:11:11.427Z,116.00
2018-06-19T04:12:11.344Z,116.00
2018-06-19T04:13:11.276Z,124.00
2018-06-19T04:14:11.195Z,124.00
2018-06-19T04:15:11.130Z,124.00
2018-06-19T04:16:11.044Z,128.00
2018-06-19T04:17:11.032Z,124.00
2018-06-19T04:18:10.897Z,128.00
2018-06-19T04:19:10.828Z,128.00
2018-06-19T04:20:10.743Z,128.00
2018-06-19T04:21:10.680Z,128.00
2018-06-19T04:22:10.594Z,128.00
2018-06-19T04:23:10.531Z,128.00
2018-06-19T04:24:10.447Z,128.00
2018-06-19T04:25:10.376Z,132.00
2018-06-19T04:26:10.296Z,136.00
2018-06-19T04:27:10.229Z,136.00
2018-06-19T04:28:10.148Z,140.00
2018-06-19T04:29:10.083Z,140.00
2018-06-19T04:30:09.996Z,144.00
2018-06-19T04:31:09.930Z,148.00
2018-06-19T04:32:09.847Z,156.00
2018-06-19T04:33:09.847Z,160.00
2018-06-19T04:34:09.699Z,168.00
2018-06-19T04:35:09.636Z,176.00
2018-06-19T04:36:09.548Z,188.00
2018-06-19T04:37:09.481Z,196.00
2018-06-19T04:38:09.401Z,196.00
2018-06-19T04:39:09.364Z,204.00
2018-06-19T04:40:09.248Z,204.00
2018-06-19T04:41:09.184Z,208.00
2018-06-19T04:42:09.181Z,208.00
2018-06-19T04:43:09.043Z,212.00
2018-06-19T04:44:08.950Z,216.00
2018-06-19T04:45:08.887Z,220.00
2018-06-19T04:46:08.861Z,224.00
2018-06-19T04:47:08.734Z,220.00
2018-06-19T04:48:08.652Z,224.00
2018-06-19T04:49:08.585Z,228.00
2018-06-19T04:50:08.504Z,228.00
2018-06-19T04:51:08.443Z,232.00
2018-06-19T04:52:08.352Z,240.00
2018-06-19T04:53:08.340Z,236.00
2018-06-19T04:54:08.204Z,240.00
2018-06-19T04:55:08.141Z,240.00
2018-06-19T04:56:08.057Z,240.00
2018-06-19T04:57:08.063Z,236.00
2018-06-19T04:58:07.909Z,236.00
2018-06-19T04:59:07.842Z,244.00
2018-06-19T05:00:07.760Z,248.00
2018-06-19T05:01:07.780Z,252.00
2018-06-19T05:02:07.611Z,244.00
2018-06-19T05:03:07.589Z,232.00
2018-06-19T05:04:07.464Z,216.00
2018-06-19T05:05:07.500Z,208.00
2018-06-19T05:06:07.318Z,204.00
2018-06-19T05:07:07.253Z,204.00
2018-06-19T05:08:07.170Z,204.00
2018-06-19T05:09:07.118Z,204.00
2018-06-19T05:10:07.018Z,208.00
2018-06-19T05:11:06.950Z,208.00
2018-06-19T05:12:06.871Z,208.00
2018-06-19T05:13:06.805Z,208.00
2018-06-19T05:14:06.726Z,212.00
2018-06-19T05:15:06.655Z,216.00
2018-06-19T05:16:06.574Z,220.00
2018-06-19T05:17:06.512Z,228.00
2018-06-19T05:18:06.428Z,232.00
2018-06-19T05:19:06.360Z,236.00
2018-06-19T05:20:06.285Z,244.00
2018-06-19T05:21:06.210Z,248.00
2018-06-19T05:22:06.132Z,244.00
2018-06-19T05:23:06.062Z,248.00
2018-06-19T05:24:05.983Z,252.00
2018-06-19T05:25:05.920Z,252.00
2018-06-19T05:26:05.835Z,252.00
2018-06-19T05:27:05.772Z,252.00
2018-06-19T05:28:05.687Z,256.00
2018-06-19T05:29:05.620Z,252.00
2018-06-19T05:30:05.543Z,252.00
2018-06-19T05:31:05.474Z,252.00
2018-06-19T05:32:05.395Z,256.00
2018-06-19T05:33:05.330Z,252.00
2018-06-19T05:34:05.244Z,252.00
2018-06-19T05:35:05.222Z,252.00
2018-06-19T05:36:05.097Z,252.00
2018-06-19T05:37:05.028Z,260.00
2018-06-19T05:38:04.952Z,268.00
2018-06-19T05:39:04.919Z,280.00
2018-06-19T05:40:04.802Z,292.00
2018-06-19T05:41:04.827Z,304.00
2018-06-19T05:42:04.654Z,316.00
2018-06-19T05:43:04.630Z,332.00
2018-06-19T05:44:04.512Z,340.00
2018-06-19T05:45:04.546Z,340.00
2018-06-19T05:46:04.360Z,344.00
2018-06-19T05:47:04.359Z,348.00
2018-06-19T05:48:04.215Z,352.00
2018-06-19T05:49:04.169Z,360.00
2018-06-19T05:50:04.067Z,364.00
2018-06-19T05:51:04.079Z,368.00
2018-06-19T05:52:03.917Z,376.00
2018-06-19T05:53:03.889Z,392.00
2018-06-19T05:54:03.770Z,412.00
2018-06-19T05:55:03.805Z,428.00
2018-06-19T05:56:03.629Z,436.00
2018-06-19T05:57:03.606Z,436.00
2018-06-19T05:58:03.475Z,444.00
2018-06-19T05:59:03.519Z,448.00
2018-06-19T06:00:03.341Z,464.00
2018-06-19T06:01:03.326Z,480.00
2018-06-19T06:02:03.184Z,496.00
2018-06-19T06:03:03.136Z,536.00
2018-06-19T06:04:03.041Z,600.00
2018-06-19T06:05:03.047Z,576.00
2018-06-19T06:06:02.890Z,476.00
2018-06-19T06:07:02.853Z,392.00
2018-06-19T06:08:02.744Z,356.00
2018-06-19T06:09:02.688Z,320.00
2018-06-19T06:10:02.598Z,316.00
2018-06-19T06:11:02.580Z,348.00
2018-06-19T06:12:02.451Z,380.00
2018-06-19T06:13:02.488Z,372.00
2018-06-19T06:14:02.301Z,436.00
2018-06-19T06:15:02.301Z,644.00
2018-06-19T06:16:02.162Z,668.00
2018-06-19T06:17:02.114Z,504.00
2018-06-19T06:18:02.013Z,728.00
2018-06-19T06:19:01.947Z,488.00
2018-06-19T06:20:01.864Z,540.00
2018-06-19T06:21:01.827Z,688.00
2018-06-19T06:22:01.724Z,676.00
2018-06-19T06:23:01.738Z,684.00
2018-06-19T06:24:01.575Z,704.00
2018-06-19T06:25:01.556Z,724.00
2018-06-19T06:26:01.425Z,724.00
2018-06-19T06:27:01.455Z,732.00
2018-06-19T06:28:01.280Z,748.00
2018-06-19T06:29:01.268Z,764.00
2018-06-19T06:30:01.134Z,760.00
2018-06-19T06:31:01.192Z,780.00
2018-06-19T06:32:00.992Z,792.00
2018-06-19T06:33:00.988Z,800.00
2018-06-19T06:34:00.841Z,804.00
2018-06-19T06:35:00.772Z,808.00
2018-06-19T06:36:00.803Z,792.00
2018-06-19T06:37:00.625Z,808.00
2018-06-19T06:38:00.629Z,812.00
2018-06-19T06:39:00.476Z,812.00
2018-06-19T06:40:00.526Z,808.00
2018-06-19T06:41:00.337Z,812.00
2018-06-19T06:42:00.331Z,820.00
2018-06-19T06:43:00.188Z,816.00
2018-06-19T06:44:00.145Z,816.00
2018-06-19T06:45:00.062Z,828.00
2018-06-19T06:46:00.054Z,824.00
2018-06-19T06:46:59.900Z,828.00
2018-06-19T06:47:59.861Z,840.00
2018-06-19T06:48:59.753Z,836.00
2018-06-19T06:49:59.774Z,852.00
2018-06-19T06:50:59.609Z,868.00
2018-06-19T06:51:59.586Z,872.00
2018-06-19T06:52:59.465Z,888.00
2018-06-19T06:53:59.495Z,908.00
2018-06-19T06:54:59.321Z,932.00
2018-06-19T06:55:59.247Z,960.00
2018-06-19T06:56:59.210Z,984.00
2018-06-19T06:57:59.100Z,428.00
2018-06-19T06:58:59.120Z,508.00
2018-06-19T06:59:58.964Z,600.00
2018-06-19T07:00:58.929Z,1236.00
2018-06-19T07:01:58.819Z,972.00
2018-06-19T07:02:58.839Z,728.00
2018-06-19T07:03:58.673Z,716.00
2018-06-19T07:04:58.600Z,740.00
2018-06-19T07:05:58.529Z,768.00
2018-06-19T07:06:58.560Z,672.00
2018-06-19T07:07:58.385Z,688.00
2018-06-19T07:08:58.368Z,1356.00
2018-06-19T07:09:58.275Z,1484.00
2018-06-19T07:10:58.280Z,900.00
2018-06-19T07:11:58.098Z,536.00
2018-06-19T07:12:58.090Z,440.00
2018-06-19T07:13:57.953Z,412.00
2018-06-19T07:14:58.000Z,432.00
2018-06-19T07:15:57.815Z,504.00
2018-06-19T07:16:57.807Z,632.00
2018-06-19T07:17:57.662Z,1672.00
2018-06-19T07:18:57.658Z,896.00
2018-06-19T07:19:57.523Z,872.00
2018-06-19T07:20:57.527Z,932.00
2018-06-19T07:21:57.387Z,1740.00
2018-06-19T07:22:57.339Z,1044.00
2018-06-19T07:23:57.236Z,812.00
2018-06-19T07:24:57.248Z,1176.00
2018-06-19T07:25:57.173Z,1268.00
2018-06-19T07:26:57.056Z,1160.00
2018-06-19T07:27:56.958Z,536.00
2018-06-19T07:28:56.974Z,496.00
2018-06-19T07:29:56.817Z,504.00
2018-06-19T07:30:56.781Z,508.00
2018-06-19T07:31:56.711Z,496.00
2018-06-19T07:32:56.607Z,432.00
2018-06-19T07:33:56.599Z,380.00
2018-06-19T07:34:56.458Z,332.00
2018-06-19T07:35:56.510Z,296.00
2018-06-19T07:36:56.317Z,272.00
2018-06-19T07:37:56.395Z,264.00
2018-06-19T07:38:56.180Z,264.00
2018-06-19T07:39:56.125Z,272.00
2018-06-19T07:40:56.033Z,276.00
2018-06-19T07:41:56.036Z,284.00
2018-06-19T07:42:55.893Z,292.00
2018-06-19T07:43:55.829Z,308.00
2018-06-19T07:44:55.854Z,356.00
2018-06-19T07:45:55.679Z,2016.00
2018-06-19T07:46:55.663Z,324.00
2018-06-19T07:47:55.540Z,360.00
2018-06-19T07:48:55.574Z,472.00
2018-06-19T07:49:55.397Z,1856.00
2018-06-19T07:50:55.383Z,2304.00
2018-06-19T07:51:55.259Z,2364.00
2018-06-19T07:52:55.291Z,2412.00
2018-06-19T07:53:55.119Z,2460.00
2018-06-19T07:54:55.104Z,2496.00
2018-06-19T07:55:54.972Z,2516.00
2018-06-19T07:56:55.024Z,2576.00
2018-06-19T07:57:54.832Z,2640.00
2018-06-19T07:58:54.829Z,2792.00
2018-06-19T07:59:54.691Z,2112.00
2018-06-19T08:00:54.743Z,2544.00
2018-06-19T08:01:54.551Z,2076.00
2018-06-19T08:02:54.482Z,1044.00
2018-06-19T08:03:54.457Z,924.00
2018-06-19T08:04:54.338Z,880.00
2018-06-19T08:05:54.364Z,860.00
2018-06-19T08:06:54.201Z,796.00
2018-06-19T08:07:54.170Z,724.00
2018-06-19T08:08:54.059Z,716.00
2018-06-19T08:09:54.081Z,684.00
2018-06-19T08:10:53.923Z,620.00
2018-06-19T08:11:53.890Z,536.00
2018-06-19T08:12:53.782Z,504.00
2018-06-19T08:13:53.809Z,516.00
2018-06-19T08:14:53.649Z,532.00
2018-06-19T08:15:53.617Z,548.00
2018-06-19T08:16:53.503Z,584.00
2018-06-19T08:17:53.521Z,656.00
2018-06-19T08:18:53.374Z,776.00
2018-06-19T08:19:53.332Z,1940.00
2018-06-19T08:20:53.227Z,2100.00
2018-06-19T08:21:53.244Z,904.00
2018-06-19T08:22:53.118Z,900.00
2018-06-19T08:23:53.052Z,792.00
2018-06-19T08:24:52.950Z,784.00
2018-06-19T08:25:52.963Z,752.00
2018-06-19T08:26:52.805Z,712.00
2018-06-19T08:27:52.773Z,692.00
2018-06-19T08:28:52.668Z,664.00
2018-06-19T08:29:52.690Z,600.00
2018-06-19T08:30:52.534Z,560.00
2018-06-19T08:31:52.495Z,556.00
2018-06-19T08:32:52.387Z,556.00
2018-06-19T08:33:52.409Z,568.00
2018-06-19T08:34:52.250Z,588.00
2018-06-19T08:35:52.218Z,616.00
2018-06-19T08:36:52.149Z,656.00
2018-06-19T08:37:52.045Z,676.00
2018-06-19T08:38:52.029Z,692.00
2018-06-19T08:39:51.903Z,704.00
2018-06-19T08:40:51.945Z,820.00
2018-06-19T08:41:51.780Z,724.00
2018-06-19T08:42:51.753Z,660.00
2018-06-19T08:43:51.619Z,604.00
2018-06-19T08:44:51.662Z,568.00
2018-06-19T08:45:51.484Z,536.00
2018-06-19T08:46:51.474Z,524.00
2018-06-19T08:47:51.344Z,532.00
2018-06-19T08:48:51.386Z,568.00
2018-06-19T08:49:51.205Z,748.00
2018-06-19T08:50:51.190Z,2568.00
2018-06-19T08:51:51.068Z,2900.00
2018-06-19T08:52:51.106Z,2888.00
2018-06-19T08:53:50.925Z,996.00
2018-06-19T08:54:50.913Z,1420.00
2018-06-19T08:55:50.790Z,1540.00
2018-06-19T08:56:50.825Z,2628.00
2018-06-19T08:57:50.649Z,888.00
2018-06-19T08:58:50.636Z,860.00
2018-06-19T08:59:50.513Z,960.00
2018-06-19T09:00:50.550Z,940.00
2018-06-19T09:01:50.372Z,1340.00
2018-06-19T09:02:50.358Z,1080.00
2018-06-19T09:03:50.236Z,956.00
2018-06-19T09:04:50.269Z,864.00
2018-06-19T09:05:50.098Z,816.00
2018-06-19T09:06:50.075Z,788.00
2018-06-19T09:07:49.957Z,756.00
2018-06-19T09:08:49.987Z,728.00
2018-06-19T09:09:49.821Z,676.00
2018-06-19T09:10:49.799Z,612.00
2018-06-19T09:11:49.683Z,556.00
2018-06-19T09:12:49.710Z,508.00
2018-06-19T09:13:49.547Z,472.00
2018-06-19T09:14:49.516Z,448.00
2018-06-19T09:15:49.405Z,440.00
2018-06-19T09:16:49.430Z,448.00
2018-06-19T09:17:49.270Z,460.00
2018-06-19T09:18:49.236Z,484.00
2018-06-19T09:19:49.131Z,512.00
2018-06-19T09:20:49.146Z,540.00
2018-06-19T09:21:48.989Z,572.00
2018-06-19T09:22:48.958Z,600.00
2018-06-19T09:23:48.858Z,636.00
2018-06-19T09:24:48.868Z,668.00
2018-06-19T09:25:48.726Z,696.00
2018-06-19T09:26:48.674Z,724.00
2018-06-19T09:27:48.578Z,772.00
2018-06-19T09:28:48.586Z,1120.00
2018-06-19T09:29:48.444Z,768.00
2018-06-19T09:30:48.394Z,728.00
2018-06-19T09:31:48.305Z,688.00
2018-06-19T09:32:48.239Z,656.00
2018-06-19T09:33:48.167Z,608.00
2018-06-19T09:34:48.113Z,560.00
2018-06-19T09:35:48.031Z,512.00
2018-06-19T09:36:48.027Z,484.00
2018-06-19T09:37:47.899Z,476.00
2018-06-19T09:38:47.937Z,492.00
2018-06-19T09:39:47.758Z,528.00
2018-06-19T09:40:47.681Z,584.00
2018-06-19T09:41:47.652Z,648.00
2018-06-19T09:42:47.545Z,708.00
2018-06-19T09:43:47.556Z,780.00
2018-06-19T09:44:47.404Z,848.00
2018-06-19T09:45:47.368Z,888.00
2018-06-19T09:46:47.267Z,856.00
2018-06-19T09:47:47.281Z,808.00
2018-06-19T09:48:47.132Z,740.00
2018-06-19T09:49:47.089Z,656.00
2018-06-19T09:50:46.995Z,600.00
2018-06-19T09:51:46.998Z,572.00
2018-06-19T09:52:46.860Z,572.00
2018-06-19T09:53:46.811Z,588.00
2018-06-19T09:54:46.716Z,624.00
2018-06-19T09:55:46.716Z,680.00
2018-06-19T09:56:46.583Z,736.00
2018-06-19T09:57:46.531Z,804.00
2018-06-19T09:58:46.441Z,872.00
2018-06-19T09:59:46.435Z,936.00
2018-06-19T10:00:46.305Z,1008.00
2018-06-19T10:01:46.349Z,1072.00
2018-06-19T10:02:46.165Z,1088.00
2018-06-19T10:03:47.182Z,1068.00
2018-06-19T10:04:46.024Z,1028.00
2018-06-19T10:05:46.181Z,976.00
2018-06-19T10:06:45.886Z,936.00
2018-06-19T10:07:45.868Z,904.00
2018-06-19T10:08:45.747Z,864.00
2018-06-19T10:09:45.785Z,848.00
2018-06-19T10:10:45.613Z,852.00
2018-06-19T10:11:45.590Z,876.00
2018-06-19T10:12:45.485Z,908.00
2018-06-19T10:13:45.505Z,940.00
2018-06-19T10:14:45.337Z,980.00
2018-06-19T10:15:45.320Z,1008.00
2018-06-19T10:16:45.198Z,1008.00
2018-06-19T10:17:45.223Z,1028.00
2018-06-19T10:18:45.061Z,1084.00
2018-06-19T10:19:45.035Z,1120.00
2018-06-19T10:20:44.926Z,1140.00
2018-06-19T10:21:44.941Z,1472.00
2018-06-19T10:22:44.785Z,1252.00
2018-06-19T10:23:44.754Z,2288.00
2018-06-19T10:24:44.646Z,1992.00
2018-06-19T10:25:44.700Z,1712.00
2018-06-19T10:26:44.511Z,1604.00
2018-06-19T10:27:44.473Z,1612.00
2018-06-19T10:28:44.378Z,1392.00
2018-06-19T10:29:44.388Z,1596.00
2018-06-19T10:30:44.237Z,1212.00
2018-06-19T10:31:44.195Z,1048.00
2018-06-19T10:32:44.099Z,920.00
2018-06-19T10:33:44.104Z,808.00
2018-06-19T10:34:43.966Z,708.00
2018-06-19T10:35:43.909Z,636.00
2018-06-19T10:36:43.831Z,592.00
2018-06-19T10:37:43.829Z,580.00
2018-06-19T10:38:43.690Z,600.00
2018-06-19T10:39:43.731Z,636.00
2018-06-19T10:40:43.552Z,692.00
2018-06-19T10:41:43.540Z,756.00
2018-06-19T10:42:43.417Z,820.00
2018-06-19T10:43:43.452Z,892.00
2018-06-19T10:44:43.279Z,980.00
2018-06-19T10:45:43.262Z,1076.00
2018-06-19T10:46:43.144Z,1120.00
2018-06-19T10:47:43.173Z,1124.00
2018-06-19T10:48:43.037Z,1196.00
2018-06-19T10:49:42.983Z,1072.00
2018-06-19T10:50:42.871Z,1060.00
2018-06-19T10:51:42.894Z,1092.00
2018-06-19T10:52:42.736Z,1060.00
2018-06-19T10:53:42.704Z,1016.00
2018-06-19T10:54:42.600Z,960.00
2018-06-19T10:55:42.613Z,932.00
2018-06-19T10:56:42.463Z,932.00
2018-06-19T10:57:42.421Z,932.00
2018-06-19T10:58:42.325Z,932.00
2018-06-19T10:59:42.332Z,936.00
2018-06-19T11:00:42.194Z,932.00
2018-06-19T11:01:42.142Z,904.00
2018-06-19T11:02:42.057Z,880.00
2018-06-19T11:03:42.053Z,844.00
2018-06-19T11:04:41.918Z,800.00
2018-06-19T11:05:41.963Z,772.00
2018-06-19T11:06:41.778Z,776.00
2018-06-19T11:07:41.772Z,804.00
2018-06-19T11:08:41.659Z,852.00
2018-06-19T11:09:41.682Z,916.00
2018-06-19T11:10:41.513Z,992.00
2018-06-19T11:11:41.495Z,1100.00
2018-06-19T11:12:41.370Z,1200.00
2018-06-19T11:13:41.402Z,1500.00
2018-06-19T11:14:41.240Z,1612.00
2018-06-19T11:15:41.210Z,1532.00
2018-06-19T11:16:41.105Z,2792.00
2018-06-19T11:17:41.124Z,1552.00
2018-06-19T11:18:40.966Z,1412.00
2018-06-19T11:19:40.931Z,1416.00
2018-06-19T11:20:40.836Z,1496.00
2018-06-19T11:21:40.842Z,1596.00
2018-06-19T11:22:40.699Z,1996.00
2018-06-19T11:23:40.651Z,2800.00
2018-06-19T11:24:40.562Z,2968.00
2018-06-19T11:25:40.572Z,1696.00
2018-06-19T11:26:40.427Z,1508.00
2018-06-19T11:27:40.471Z,1380.00
2018-06-19T11:28:40.289Z,1484.00
2018-06-19T11:29:40.280Z,1260.00
2018-06-19T11:30:40.155Z,1180.00
2018-06-19T11:31:40.192Z,1120.00
2018-06-19T11:32:40.030Z,1072.00
2018-06-19T11:33:39.999Z,1024.00
2018-06-19T11:34:39.886Z,988.00
2018-06-19T11:35:39.911Z,968.00
2018-06-19T11:36:39.756Z,964.00
2018-06-19T11:37:39.714Z,976.00
2018-06-19T11:38:39.698Z,992.00
2018-06-19T11:39:39.631Z,960.00
2018-06-19T11:40:39.480Z,940.00
2018-06-19T11:41:39.441Z,904.00
2018-06-19T11:42:39.354Z,980.00
2018-06-19T11:43:39.356Z,816.00
2018-06-19T11:44:39.271Z,776.00
2018-06-19T11:45:39.262Z,752.00
2018-06-19T11:46:39.085Z,752.00
2018-06-19T11:47:39.074Z,752.00
2018-06-19T11:48:38.952Z,760.00
2018-06-19T11:49:38.982Z,784.00
2018-06-19T11:50:38.814Z,836.00
2018-06-19T11:51:38.786Z,956.00
2018-06-19T11:52:38.679Z,1056.00
2018-06-19T11:53:38.700Z,2636.00
2018-06-19T11:54:38.602Z,2556.00
2018-06-19T11:55:38.508Z,2440.00
2018-06-19T11:56:38.409Z,2764.00
2018-06-19T11:57:38.419Z,2808.00
2018-06-19T11:58:38.286Z,1768.00
2018-06-19T11:59:38.230Z,1296.00
2018-06-19T12:00:38.143Z,1312.00
2018-06-19T12:01:38.141Z,1416.00
2018-06-19T12:02:38.013Z,1436.00
2018-06-19T12:03:38.051Z,1272.00
2018-06-19T12:04:37.874Z,1296.00
2018-06-19T12:05:37.859Z,1248.00
2018-06-19T12:06:37.790Z,1264.00
2018-06-19T12:07:37.771Z,1280.00
2018-06-19T12:08:37.606Z,2784.00
2018-06-19T12:09:37.579Z,1300.00
2018-06-19T12:10:37.479Z,2664.00
2018-06-19T12:11:37.489Z,1420.00
2018-06-19T12:12:37.351Z,2068.00
2018-06-19T12:13:37.299Z,2740.00
2018-06-19T12:14:37.212Z,2356.00
2018-06-19T12:15:37.210Z,1084.00
2018-06-19T12:16:37.078Z,1044.00
2018-06-19T12:17:37.123Z,988.00
2018-06-19T12:18:36.943Z,948.00
2018-06-19T12:19:36.929Z,924.00
2018-06-19T12:20:36.832Z,1056.00
2018-06-19T12:21:36.849Z,868.00
2018-06-19T12:22:36.681Z,864.00
2018-06-19T12:23:36.650Z,880.00
2018-06-19T12:24:36.548Z,1004.00
2018-06-19T12:25:36.569Z,956.00
2018-06-19T12:26:36.414Z,956.00
2018-06-19T12:27:36.371Z,1008.00
2018-06-19T12:28:36.290Z,1060.00
2018-06-19T12:29:36.353Z,1044.00
2018-06-19T12:30:36.151Z,1084.00
2018-06-19T12:31:36.192Z,1040.00
2018-06-19T12:32:36.015Z,1020.00
2018-06-19T12:33:36.001Z,1020.00
2018-06-19T12:34:35.883Z,2512.00
2018-06-19T12:35:35.907Z,1144.00
2018-06-19T12:36:35.752Z,968.00
2018-06-19T12:37:35.720Z,940.00
2018-06-19T12:38:35.618Z,932.00
2018-06-19T12:39:35.634Z,940.00
2018-06-19T12:40:35.484Z,964.00
2018-06-19T12:41:35.480Z,1028.00